Time;durP1;ratioP1;P1;durP2;ratioP2;P2;SDS_P1;SDS_P2;PMS_P1;PMS_P2;Temp;Humidity;BMP_temperature;BMP_pressure;BME280_temperature;BME280_humidity;BME280_pressure;Samples;Min_cycle;Max_cycle;Signal;HPM_P1;HPM_P2
2021/06/05 00:00:36;;;;;;;;;;;;;;;;;;5054006;28;19931;-78
2021/06/05 00:03:02;;;;;;;;;;;;;;;;;;5054795;28;19908;-78
2021/06/05 00:05:28;;;;;;;;;;;;;;;;;;5023266;28;19999;-78
2021/06/05 00:07:56;;;;;;;;;;;;;;;;;;5016869;28;20305;-78
2021/06/05 00:10:22;;;;;;;;;;;;;;;;;;5034926;28;19936;-77
2021/06/05 00:12:48;;;;;;;;;;;;;;;;;;5053202;28;19905;-78
2021/06/05 00:15:14;;;;;;;;;;;;;;;;;;5053219;28;19913;-78
2021/06/05 00:17:40;;;;;;;;;;;;;;;;;;5036355;28;19912;-77
2021/06/05 00:20:06;;;;;;;;;;;;;;;;;;5041873;28;20404;-78
2021/06/05 00:22:32;;;;;;;;;;;;;;;;;;5040367;28;19904;-77
2021/06/05 00:24:57;;;;;;;;;;;;;;;;;;5052131;28;19959;-77
2021/06/05 00:27:23;;;;;;;;;;;;;;;;;;5051509;28;19940;-77
2021/06/05 00:29:49;;;;;;;;;;;;;;;;;;5054205;28;20282;-77
2021/06/05 00:32:15;;;;;;;;;;;;;;;;;;5055880;28;20031;-77
2021/06/05 00:34:41;;;;;;;;;;;;;;;;;;5045765;28;19920;-77
2021/06/05 00:37:07;;;;;;;;;;;;;;;;;;5036406;28;19979;-77
2021/06/05 00:39:33;;;;;;;;;;;;;;;;;;5035932;28;19995;-77
2021/06/05 00:41:58;;;;;;;;;;;;;;;;;;5036226;28;19905;-78
2021/06/05 00:44:24;;;;;;;;;;;;;;;;;;5043989;28;20375;-77
2021/06/05 00:46:50;;;;;;;;;;;;;;;;;;5055523;28;19905;-77
2021/06/05 00:49:18;;;;;;;;;;;;;;;;;;5054899;28;19940;-77
2021/06/05 00:51:44;;;;;;;;;;;;;;;;;;5055474;28;19954;-77
2021/06/05 00:54:10;;;;;;;;;;;;;;;;;;5053078;28;19913;-77
2021/06/05 00:56:36;;;;;;;;;;;;;;;;;;5055467;28;19905;-77
2021/06/05 00:59:02;;;;;;;;;;;;;;;;;;5053138;28;19971;-77
2021/06/05 01:01:30;;;;;;;;;;;;;;;;;;5018090;28;19963;-77
2021/06/05 01:03:56;;;;;;;;;;;;;;;;;;5038954;28;19961;-77
2021/06/05 01:06:22;;;;;;;;;;;;;;;;;;5055699;28;19995;-77
2021/06/05 01:08:50;;;;;;;;;;;;;;;;;;5035345;28;20282;-77
2021/06/05 01:11:18;;;;;;;;;;;;;;;;;;5036355;28;19912;-77
2021/06/05 01:13:44;;;;;;;;;;;;;;;;;;5052531;28;19960;-77
2021/06/05 01:16:10;;;;;;;;;;;;;;;;;;5034664;28;19967;-77
2021/06/05 01:18:36;;;;;;;;;;;;;;;;;;5034507;28;19905;-77
2021/06/05 01:21:02;;;;;;;;;;;;;;;;;;5034674;28;20000;-78
2021/06/05 01:23:28;;;;;;;;;;;;;;;;;;5032651;28;19909;-78
2021/06/05 01:25:53;;;;;;;;;;;;;;;;;;5018276;28;19913;-78
2021/06/05 01:28:19;;;;;;;;;;;;;;;;;;5035320;28;20337;-78
2021/06/05 01:30:48;;;;;;;;;;;;;;;;;;5035303;28;19905;-78
2021/06/05 01:33:14;;;;;;;;;;;;;;;;;;5035614;28;19917;-77
2021/06/05 01:35:39;;;;;;;;;;;;;;;;;;5051893;28;20274;-77
2021/06/05 01:38:05;;;;;;;;;;;;;;;;;;5055057;28;20003;-77
2021/06/05 01:40:31;;;;;;;;;;;;;;;;;;5036871;28;19924;-77
2021/06/05 01:42:57;;;;;;;;;;;;;;;;;;5054498;28;19916;-77
2021/06/05 01:45:23;;;;;;;;;;;;;;;;;;5040679;28;20012;-77
2021/06/05 01:47:49;;;;;;;;;;;;;;;;;;5040412;28;19912;-76
2021/06/05 01:50:15;;;;;;;;;;;;;;;;;;5038985;28;19912;-76
2021/06/05 01:52:41;;;;;;;;;;;;;;;;;;5022297;28;19917;-77
2021/06/05 01:55:07;;;;;;;;;;;;;;;;;;5051179;28;19912;-76
2021/06/05 01:57:33;;;;;;;;;;;;;;;;;;5059213;28;19991;-76
2021/06/05 01:59:59;;;;;;;;;;;;;;;;;;5056585;28;20481;-76
2021/06/05 02:02:25;;;;;;;;;;;;;;;;;;5057140;28;19926;-77
2021/06/05 02:04:51;;;;;;;;;;;;;;;;;;5038801;28;19970;-77
2021/06/05 02:07:17;;;;;;;;;;;;;;;;;;5035903;28;19912;-78
2021/06/05 02:09:42;;;;;;;;;;;;;;;;;;5035753;28;19916;-77
2021/06/05 02:12:08;;;;;;;;;;;;;;;;;;5040038;28;20235;-83
2021/06/05 02:14:34;;;;;;;;;;;;;;;;;;5029920;28;19917;-79
2021/06/05 02:17:00;;;;;;;;;;;;;;;;;;5056357;28;20275;-78
2021/06/05 02:19:26;;;;;;;;;;;;;;;;;;5056305;28;19916;-78
2021/06/05 02:21:52;;;;;;;;;;;;;;;;;;5057400;28;20302;-80
2021/06/05 02:24:18;;;;;;;;;;;;;;;;;;5058394;28;19908;-82
2021/06/05 02:26:46;;;;;;;;;;;;;;;;;;5058297;28;20310;-81
2021/06/05 02:29:12;;;;;;;;;;;;;;;;;;5058422;28;19908;-81
2021/06/05 02:31:40;;;;;;;;;;;;;;;;;;5057248;28;19913;-82
2021/06/05 02:34:06;;;;;;;;;;;;;;;;;;5052399;28;20581;-85
2021/06/05 02:36:32;;;;;;;;;;;;;;;;;;5033946;28;19905;-77
2021/06/05 02:38:58;;;;;;;;;;;;;;;;;;5034026;28;20280;-77
2021/06/05 02:41:24;;;;;;;;;;;;;;;;;;5037097;28;19947;-77
2021/06/05 02:43:49;;;;;;;;;;;;;;;;;;5046748;28;19915;-77
2021/06/05 02:46:15;;;;;;;;;;;;;;;;;;5036577;28;20004;-77
2021/06/05 02:48:41;;;;;;;;;;;;;;;;;;5054959;28;20351;-77
2021/06/05 02:51:07;;;;;;;;;;;;;;;;;;5017748;28;19912;-77
2021/06/05 02:53:33;;;;;;;;;;;;;;;;;;5036029;28;19913;-77
2021/06/05 02:55:59;;;;;;;;;;;;;;;;;;5051765;28;20397;-78
2021/06/05 02:58:25;;;;;;;;;;;;;;;;;;5054300;28;20328;-77
2021/06/05 03:00:51;;;;;;;;;;;;;;;;;;5037140;28;19909;-77
2021/06/05 03:03:19;;;;;;;;;;;;;;;;;;5015424;28;20359;-76
2021/06/05 03:05:47;;;;;;;;;;;;;;;;;;5051219;28;19909;-76
2021/06/05 03:08:13;;;;;;;;;;;;;;;;;;5052253;28;19911;-76
2021/06/05 03:10:39;;;;;;;;;;;;;;;;;;5051348;28;19909;-75
2021/06/05 03:13:05;;;;;;;;;;;;;;;;;;5033955;28;19905;-75
2021/06/05 03:15:31;;;;;;;;;;;;;;;;;;5035396;28;19909;-76
2021/06/05 03:17:56;;;;;;;;;;;;;;;;;;5032245;28;19905;-76
2021/06/05 03:20:22;;;;;;;;;;;;;;;;;;5032158;28;20276;-76
2021/06/05 03:22:48;;;;;;;;;;;;;;;;;;5045579;28;19955;-76
2021/06/05 03:25:14;;;;;;;;;;;;;;;;;;5053478;28;19913;-76
2021/06/05 03:27:40;;;;;;;;;;;;;;;;;;5035961;28;19944;-76
2021/06/05 03:30:06;;;;;;;;;;;;;;;;;;5039974;28;19932;-79
2021/06/05 03:32:32;;;;;;;;;;;;;;;;;;5022499;28;20317;-76
2021/06/05 03:34:58;;;;;;;;;;;;;;;;;;5048462;28;20010;-76
2021/06/05 03:37:26;;;;;;;;;;;;;;;;;;5055767;28;19931;-76
2021/06/05 03:39:54;;;;;;;;;;;;;;;;;;5041690;28;19959;-78
2021/06/05 03:42:20;;;;;;;;;;;;;;;;;;5064787;28;19909;-78
2021/06/05 03:44:48;;;;;;;;;;;;;;;;;;5043747;28;19919;-76
2021/06/05 03:47:19;;;;;;;;;;;;;;;;;;5042306;28;19915;-76
2021/06/05 03:49:44;;;;;;;;;;;;;;;;;;5037973;28;19911;-78
2021/06/05 03:52:10;;;;;;;;;;;;;;;;;;5038635;28;19971;-78
2021/06/05 03:54:39;;;;;;;;;;;;;;;;;;5045134;28;19912;-78
2021/06/05 03:57:05;;;;;;;;;;;;;;;;;;5053606;28;19911;-76
2021/06/05 03:59:30;;;;;;;;;;;;;;;;;;5034428;28;19909;-76
2021/06/05 04:01:57;;;;;;;;;;;;;;;;;;5016759;28;20012;-78
2021/06/05 04:04:23;;;;;;;;;;;;;;;;;;5024910;28;19908;-76
2021/06/05 04:06:52;;;;;;;;;;;;;;;;;;5041480;28;20043;-78
2021/06/05 04:09:17;;;;;;;;;;;;;;;;;;5051605;28;19944;-78
2021/06/05 04:11:43;;;;;;;;;;;;;;;;;;5019467;28;19936;-78
2021/06/05 04:14:12;;;;;;;;;;;;;;;;;;5037579;28;20469;-78
2021/06/05 04:16:40;;;;;;;;;;;;;;;;;;5037070;28;19905;-77
2021/06/05 04:19:06;;;;;;;;;;;;;;;;;;5036761;28;19947;-77
2021/06/05 04:21:34;;;;;;;;;;;;;;;;;;5036401;28;20351;-77
2021/06/05 04:24:00;;;;;;;;;;;;;;;;;;5055007;28;19923;-77
2021/06/05 04:26:26;;;;;;;;;;;;;;;;;;5056612;28;20371;-77
2021/06/05 04:28:52;;;;;;;;;;;;;;;;;;5056672;28;19934;-78
2021/06/05 04:31:18;;;;;;;;;;;;;;;;;;5056647;28;19911;-78
2021/06/05 04:33:44;;;;;;;;;;;;;;;;;;5052327;28;19917;-85
2021/06/05 04:36:10;;;;;;;;;;;;;;;;;;5021864;28;19912;-82
2021/06/05 04:38:36;;;;;;;;;;;;;;;;;;5021026;28;20279;-81
2021/06/05 04:41:01;;;;;;;;;;;;;;;;;;5039513;28;19999;-84
2021/06/05 04:43:27;;;;;;;;;;;;;;;;;;5045083;28;19909;-80
2021/06/05 04:45:53;;;;;;;;;;;;;;;;;;5068542;28;19913;-77
2021/06/05 04:48:19;;;;;;;;;;;;;;;;;;5076434;28;19926;-77
2021/06/05 04:50:45;;;;;;;;;;;;;;;;;;5076042;28;19954;-77
2021/06/05 04:53:11;;;;;;;;;;;;;;;;;;5065580;28;19913;-78
2021/06/05 04:55:37;;;;;;;;;;;;;;;;;;5057928;28;19915;-77
2021/06/05 04:58:03;;;;;;;;;;;;;;;;;;5062971;28;19962;-77
2021/06/05 05:00:29;;;;;;;;;;;;;;;;;;5070497;28;19904;-80
2021/06/05 05:02:55;;;;;;;;;;;;;;;;;;5072642;28;19915;-78
2021/06/05 05:05:20;;;;;;;;;;;;;;;;;;5046055;28;20335;-77
2021/06/05 05:07:46;;;;;;;;;;;;;;;;;;5064682;28;19908;-77
2021/06/05 05:10:12;;;;;;;;;;;;;;;;;;5059884;28;19904;-79
2021/06/05 05:12:38;;;;;;;;;;;;;;;;;;5054356;28;19917;-80
2021/06/05 05:15:04;;;;;;;;;;;;;;;;;;5038051;28;20000;-81
2021/06/05 05:17:33;;;;;;;;;;;;;;;;;;5061805;28;19964;-82
2021/06/05 05:19:59;;;;;;;;;;;;;;;;;;5051902;28;19980;-80
2021/06/05 05:22:25;;;;;;;;;;;;;;;;;;5044808;28;19916;-80
2021/06/05 05:24:51;;;;;;;;;;;;;;;;;;5056516;28;19962;-78
2021/06/05 05:27:17;;;;;;;;;;;;;;;;;;5057335;28;19911;-76
2021/06/05 05:29:43;;;;;;;;;;;;;;;;;;5049508;28;19992;-76
2021/06/05 05:32:08;;;;;;;;;;;;;;;;;;5041806;28;19912;-71
2021/06/05 05:34:34;;;;;;;;;;;;;;;;;;5043129;28;19916;-77
2021/06/05 05:37:00;;;;;;;;;;;;;;;;;;5054342;28;19909;-75
2021/06/05 05:39:26;;;;;;;;;;;;;;;;;;5052210;28;20001;-75
2021/06/05 05:41:53;;;;;;;;;;;;;;;;;;5050968;28;19913;-75
2021/06/05 05:44:19;;;;;;;;;;;;;;;;;;5052953;28;20042;-75
2021/06/05 05:46:46;;;;;;;;;;;;;;;;;;5039111;28;19956;-75
2021/06/05 05:49:11;;;;;;;;;;;;;;;;;;5040583;28;19915;-75
2021/06/05 05:51:37;;;;;;;;;;;;;;;;;;5042309;28;20350;-76
2021/06/05 05:54:03;;;;;;;;;;;;;;;;;;5027145;28;19917;-77
2021/06/05 05:56:30;;;;;;;;;;;;;;;;;;5041655;28;20272;-75
2021/06/05 05:58:55;;;;;;;;;;;;;;;;;;5043474;28;19909;-75
2021/06/05 06:01:21;;;;;;;;;;;;;;;;;;5015428;28;19905;-75
2021/06/05 06:03:47;;;;;;;;;;;;;;;;;;5041954;28;19909;-77
2021/06/05 06:06:16;;;;;;;;;;;;;;;;;;5053131;28;19987;-76
2021/06/05 06:08:41;;;;;;;;;;;;;;;;;;5052973;28;19951;-76
2021/06/05 06:11:09;;;;;;;;;;;;;;;;;;5052998;28;19909;-77
2021/06/05 06:13:37;;;;;;;;;;;;;;;;;;5046418;28;20438;-77
2021/06/05 06:16:03;;;;;;;;;;;;;;;;;;5015273;28;19909;-75
2021/06/05 06:18:29;;;;;;;;;;;;;;;;;;5030639;28;19905;-76
2021/06/05 06:20:55;;;;;;;;;;;;;;;;;;5049934;28;19928;-76
2021/06/05 06:23:20;;;;;;;;;;;;;;;;;;5052063;28;19909;-76
2021/06/05 06:25:49;;;;;;;;;;;;;;;;;;5051954;28;19947;-76
2021/06/05 06:28:15;;;;;;;;;;;;;;;;;;5035224;28;20354;-76
2021/06/05 06:30:43;;;;;;;;;;;;;;;;;;5052847;28;19905;-76
2021/06/05 06:33:09;;;;;;;;;;;;;;;;;;5034606;28;19967;-76
2021/06/05 06:35:35;;;;;;;;;;;;;;;;;;5052896;28;19943;-76
2021/06/05 06:38:01;;;;;;;;;;;;;;;;;;5052588;28;20420;-76
2021/06/05 06:40:27;;;;;;;;;;;;;;;;;;5056425;28;19919;-76
2021/06/05 06:42:53;;;;;;;;;;;;;;;;;;5033474;28;20146;-76
2021/06/05 06:48:05;;;;;;;;;;;;;;;;;;5041719;28;19970;-75
2021/06/05 06:50:30;;;;;;;;;;;;;;;;;;5031867;28;20112;-75
2021/06/05 06:52:56;;;;;;;;;;;;;;;;;;5045204;28;19909;-75
2021/06/05 06:55:22;;;;;;;;;;;;;;;;;;5048804;28;19908;-75
2021/06/05 06:57:48;;;;;;;;;;;;;;;;;;5029814;28;19940;-76
2021/06/05 07:00:14;;;;;;;;;;;;;;;;;;5041753;28;20333;-77
2021/06/05 07:02:40;;;;;;;;;;;;;;;;;;5052666;28;19904;-77
2021/06/05 07:05:06;;;;;;;;;;;;;;;;;;5052012;28;19991;-76
2021/06/05 07:07:32;;;;;;;;;;;;;;;;;;5032550;28;19909;-77
2021/06/05 07:09:58;;;;;;;;;;;;;;;;;;5037198;28;20430;-77
2021/06/05 07:12:23;;;;;;;;;;;;;;;;;;5048819;28;19917;-78
2021/06/05 07:14:49;;;;;;;;;;;;;;;;;;5028250;28;20015;-76
2021/06/05 07:17:15;;;;;;;;;;;;;;;;;;5040147;28;20450;-77
2021/06/05 07:19:44;;;;;;;;;;;;;;;;;;5053774;28;19905;-77
2021/06/05 07:22:10;;;;;;;;;;;;;;;;;;5053620;28;19958;-76
2021/06/05 07:24:36;;;;;;;;;;;;;;;;;;5023254;28;19913;-77
2021/06/05 07:27:02;;;;;;;;;;;;;;;;;;5056594;28;19905;-78
2021/06/05 07:29:28;;;;;;;;;;;;;;;;;;5054196;28;19905;-75
2021/06/05 07:31:54;;;;;;;;;;;;;;;;;;5051657;28;20471;-76
2021/06/05 07:34:23;;;;;;;;;;;;;;;;;;5032594;28;20550;-76
2021/06/05 07:36:49;;;;;;;;;;;;;;;;;;5044050;28;20337;-76
2021/06/05 07:39:15;;;;;;;;;;;;;;;;;;5025607;28;19952;-76
2021/06/05 07:41:43;;;;;;;;;;;;;;;;;;5049342;28;20462;-76
2021/06/05 07:44:09;;;;;;;;;;;;;;;;;;5048552;28;20320;-76
2021/06/05 07:46:35;;;;;;;;;;;;;;;;;;5046863;28;20019;-76
2021/06/05 07:49:01;;;;;;;;;;;;;;;;;;5030782;28;19909;-76
2021/06/05 07:51:27;;;;;;;;;;;;;;;;;;5037206;28;19913;-76
2021/06/05 07:53:53;;;;;;;;;;;;;;;;;;5048130;28;19955;-76
2021/06/05 07:56:19;;;;;;;;;;;;;;;;;;5031065;28;19925;-76
2021/06/05 07:58:45;;;;;;;1.45;1.35;;;;;;;;;;5030623;28;20586;-76
2021/06/05 08:01:11;;;;;;;2.13;1.93;;;;;;;;;;5041430;28;20180;-76
2021/06/05 08:03:39;;;;;;;2.60;2.07;;;;;;;;;;5025698;28;20439;-76
2021/06/05 08:06:05;;;;;;;2.73;2.53;;;;;;;;;;5043112;28;20440;-76
2021/06/05 08:08:31;;;;;;;2.70;1.67;;;;;;;;;;5050275;28;20494;-77
2021/06/05 08:11:00;;;;;;;1.63;1.53;;;;;;;;;;5031144;28;20469;-77
2021/06/05 08:13:26;;;;;;;1.67;1.37;;;;;;;;;;5018712;28;20556;-77
2021/06/05 08:15:52;;;;;;;3.47;1.57;;;;;;;;;;5039756;28;20851;-77
2021/06/05 08:18:21;;;;;;;2.27;2.07;;;;;;;;;;5039160;28;20769;-76
2021/06/05 08:20:49;;;;;;;4.23;1.77;;;;;;;;;;5038706;28;20442;-74
2021/06/05 08:23:17;;;;;;;1.63;1.53;;;;;;;;;;5012951;28;20423;-73
2021/06/05 08:25:43;;;;;;;3.27;1.73;;;;;;;;;;5039545;28;20403;-73
2021/06/05 08:28:09;;;;;;;3.30;1.67;;;;;;;;;;5038847;28;20412;-73
2021/06/05 08:30:40;;;;;;;2.67;1.90;;;;;;;;;;5029026;28;20455;-73
2021/06/05 08:33:07;;;;;;;2.00;1.70;;;;;;;;;;5050999;28;20877;-74
2021/06/05 08:35:33;;;;;;;2.37;2.23;;;;;;;;;;5051836;28;20403;-72
2021/06/05 08:37:59;;;;;;;1.43;1.33;;;;;;;;;;5052267;28;20403;-75
2021/06/05 08:40:33;;;;;;;1.90;1.30;;;;;;;;;;5040108;28;20471;-81
2021/06/05 08:42:59;;;;;;;1.70;1.60;;;;;;;;;;5033091;28;20774;-73
2021/06/05 08:45:30;;;;;;;4.20;2.57;;;;;;;;;;5031514;28;20449;-81
2021/06/05 08:47:57;;;;;;;2.13;1.73;;;;;;;;;;5075244;28;20387;-82
2021/06/05 08:50:28;;;;;;;1.83;1.50;;;;;;;;;;5045135;28;20955;-80
2021/06/05 08:52:57;;;;;;;4.23;3.33;;;;;;;;;;5053016;28;20934;-78
2021/06/05 08:55:44;;;;;;;1.43;1.33;;;;;;;;;;5068945;28;20437;-77
2021/06/05 08:58:10;;;;;;;1.90;1.80;;;;;;;;;;5053573;28;20399;-71
2021/06/05 09:00:46;;;;;;;3.40;1.93;;;;;;;;;;5059603;28;20463;-77
2021/06/05 09:03:17;;;;;;;2.80;1.63;;;;;;;;;;5056219;28;20178;-75
2021/06/05 09:05:48;;;;;;;2.77;2.23;;;;;;;;;;5031754;28;20418;-75
2021/06/05 09:08:18;;;;;;;1.80;1.50;;;;;;;;;;5054267;28;20775;-78
2021/06/05 09:10:45;;;;;;;1.53;1.17;;;;;;;;;;5038956;28;20780;-77
2021/06/05 09:13:13;;;;;;;4.40;2.63;;;;;;;;;;5057053;28;20395;-77
2021/06/05 09:15:42;;;;;;;1.73;1.60;;;;;;;;;;5054663;28;20418;-80
2021/06/05 09:18:12;;;;;;;2.30;1.40;;;;;;;;;;5055866;28;20427;-75
2021/06/05 09:20:41;;;;;;;1.60;1.50;;;;;;;;;;5041891;28;20451;-80
2021/06/05 09:23:29;;;;;;;1.77;1.47;;;;;;;;;;5061942;28;20403;-81
2021/06/05 09:25:56;;;;;;;4.73;2.43;;;;;;;;;;5035600;28;20404;-81
2021/06/05 09:28:31;;;;;;;2.00;1.80;;;;;;;;;;5052846;28;20385;-85
2021/06/05 09:31:16;;;;;;;1.70;1.60;;;;;;;;;;5022010;28;20391;-80
2021/06/05 09:33:42;;;;;;;2.30;1.73;;;;;;;;;;5053863;28;20450;-72
2021/06/05 09:36:13;;;;;;;1.60;1.50;;;;;;;;;;5052511;28;20913;-70
2021/06/05 09:38:45;;;;;;;2.30;1.93;;;;;;;;;;5052508;28;20399;-69
2021/06/05 09:41:19;;;;;;;2.60;1.97;;;;;;;;;;5053233;28;20760;-71
2021/06/05 09:43:47;;;;;;;3.93;1.40;;;;;;;;;;5032971;28;20410;-69
2021/06/05 09:46:28;;;;;;;1.70;1.40;;;;;;;;;;5042609;28;20418;-71
2021/06/05 09:49:13;;;;;;;1.70;1.57;;;;;;;;;;5024787;28;20299;-80
2021/06/05 09:51:41;;;;;;;2.23;1.67;;;;;;;;;;5052772;28;20451;-81
2021/06/05 09:54:09;;;;;;;1.50;1.23;;;;;;;;;;5056287;28;20439;-74
2021/06/05 09:56:46;;;;;;;3.10;1.60;;;;;;;;;;5029236;28;20419;-75
2021/06/05 09:59:17;;;;;;;1.77;1.60;;;;;;;;;;5054626;28;21036;-79
2021/06/05 10:01:55;;;;;;;1.60;1.50;;;;;;;;;;5038961;28;20787;-80
2021/06/05 10:04:21;;;;;;;1.60;1.47;;;;;;;;;;5049121;28;20429;-72
2021/06/05 10:06:51;;;;;;;2.93;1.43;;;;;;;;;;5031863;28;20399;-72
2021/06/05 10:09:29;;;;;;;1.90;1.80;;;;;;;;;;5053165;28;21023;-71
2021/06/05 10:11:58;;;;;;;5.23;2.60;;;;;;;;;;5053822;28;20805;-75
2021/06/05 10:14:30;;;;;;;2.93;1.60;;;;;;;;;;5055021;28;20435;-75
2021/06/05 10:17:06;;;;;;;3.27;1.70;;;;;;;;;;5034106;28;20944;-75
2021/06/05 10:19:36;;;;;;;2.30;1.90;;;;;;;;;;5033653;28;20950;-76
2021/06/05 10:22:03;;;;;;;3.07;1.47;;;;;;;;;;5015323;28;20407;-73
2021/06/05 10:24:40;;;;;;;2.90;1.40;;;;;;;;;;5052169;28;20400;-70
2021/06/05 10:27:08;;;;;;;4.20;1.97;;;;;;;;;;5051386;28;20415;-72
2021/06/05 10:29:42;;;;;;;1.73;1.53;;;;;;;;;;5016919;28;20432;-75
2021/06/05 10:32:09;;;;;;;2.60;1.63;;;;;;;;;;5033317;28;20399;-76
2021/06/05 10:34:43;;;;;;;2.47;2.13;;;;;;;;;;5033436;28;20618;-76
2021/06/05 10:37:11;;;;;;;2.40;1.23;;;;;;;;;;5058243;28;20755;-75
2021/06/05 10:39:39;;;;;;;2.53;1.90;;;;;;;;;;5052471;28;20451;-75
2021/06/05 10:42:13;;;;;;;1.93;1.73;;;;;;;;;;5033520;28;20422;-71
2021/06/05 10:44:52;;;;;;;1.63;1.53;;;;;;;;;;5061930;28;20914;-84
2021/06/05 10:47:21;;;;;;;1.87;1.63;;;;;;;;;;5041222;28;20464;-76
2021/06/05 10:50:06;;;;;;;1.67;1.57;;;;;;;;;;5062298;28;20422;-77
2021/06/05 10:52:42;;;;;;;2.80;1.93;;;;;;;;;;5039817;28;20946;-78
2021/06/05 10:55:14;;;;;;;1.43;1.33;;;;;;;;;;5045665;28;20464;-74
2021/06/05 10:57:44;;;;;;;2.50;2.30;;;;;;;;;;5056715;28;20415;-75
2021/06/05 11:00:45;;;;;;;1.33;1.10;;;;;;;;;;5048734;28;20455;-83
2021/06/05 11:03:31;;;;;;;4.40;3.30;;;;;;;;;;5043998;28;20475;-72
2021/06/05 11:06:02;;;;;;;4.60;2.97;;;;;;;;;;5033939;28;20411;-72
2021/06/05 11:08:31;;;;;;;1.43;1.33;;;;;;;;;;5046107;28;20400;-71
2021/06/05 11:11:00;;;;;;;1.50;1.40;;;;;;;;;;5028894;28;20415;-71
2021/06/05 11:13:34;;;;;;;4.50;2.20;;;;;;;;;;5044138;28;20444;-73
2021/06/05 11:16:00;;;;;;;;;;;;;;;;;;5040031;28;20371;-73
2021/06/05 11:18:27;;;;;;;2.50;2.30;;;;;;;;;;5026628;28;20459;-74
2021/06/05 11:20:53;;;;;;;2.03;1.60;;;;;;;;;;5030461;28;20391;-74
2021/06/05 11:23:20;;;;;;;1.30;1.20;;;;;;;;;;5051490;28;20381;-74
2021/06/05 11:25:49;;;;;;;2.17;1.50;;;;;;;;;;5051677;28;20490;-74
2021/06/05 11:28:42;;;;;;;1.27;1.17;;;;;;;;;;5045244;28;20406;-75
2021/06/05 11:31:08;;;;;;;;;;;;;;;;;;5053794;28;21067;-77
2021/06/05 11:33:34;;;;;;;;;;;;;;;;;;5072287;28;19925;-76
2021/06/05 11:36:02;;;;;;;;;;;;;;;;;;5068793;28;19944;-74
2021/06/05 11:38:27;;;;;;;;;;;;;;;;;;5060894;28;19909;-77
2021/06/05 11:40:53;;;;;;;;;;;;;;;;;;5068118;28;19919;-80
2021/06/05 11:43:19;;;;;;;;;;;;;;;;;;5060074;28;19909;-77
2021/06/05 11:45:45;;;;;;;;;;;;;;;;;;5069362;28;19916;-77
2021/06/05 11:48:11;;;;;;;;;;;;;;;;;;5060439;28;20433;-73
2021/06/05 11:50:37;;;;;;;;;;;;;;;;;;5065448;28;19912;-73
2021/06/05 11:53:03;;;;;;;;;;;;;;;;;;5061815;28;19917;-74
2021/06/05 11:55:29;;;;;;;;;;;;;;;;;;5056003;28;19952;-73
2021/06/05 11:57:55;;;;;;;;;;;;;;;;;;5041875;28;20388;-78
2021/06/05 12:00:20;;;;;;;;;;;;;;;;;;5042736;28;20593;-77
2021/06/05 12:02:46;;;;;;;;;;;;;;;;;;5048597;28;19984;-76
2021/06/05 12:05:12;;;;;;;;;;;;;;;;;;5040035;28;19913;-75
2021/06/05 12:07:38;;;;;;;;;;;;;;;;;;5049478;28;20355;-75
2021/06/05 12:10:04;;;;;;;;;;;;;;;;;;5045009;28;20032;-75
2021/06/05 12:12:30;;;;;;;;;;;;;;;;;;5059468;28;20307;-76
2021/06/05 12:15:00;;;;;;;;;;;;;;;;;;5054063;28;19917;-74
2021/06/05 12:17:26;;;;;;;;;;;;;;;;;;5060886;28;19912;-77
2021/06/05 12:19:52;;;;;;;;;;;;;;;;;;5060972;28;19920;-76
2021/06/05 12:22:18;;;;;;;;;;;;;;;;;;5060041;28;19923;-77
2021/06/05 12:24:44;;;;;;;;;;;;;;;;;;5062883;28;20003;-77
2021/06/05 12:27:10;;;;;;;;;;;;;;;;;;5062812;28;19912;-74
2021/06/05 12:29:36;;;;;;;;;;;;;;;;;;5069813;28;20107;-86
2021/06/05 12:32:02;;;;;;;;;;;;;;;;;;5055219;28;19992;-78
2021/06/05 12:34:28;;;;;;;;;;;;;;;;;;5075871;28;19912;-82
2021/06/05 12:36:54;;;;;;;;;;;;;;;;;;5066022;28;20367;-83
2021/06/05 12:39:23;;;;;;;;;;;;;;;;;;5083009;28;19923;-85
2021/06/05 12:41:48;;;;;;;;;;;;;;;;;;5062597;28;20367;-84
2021/06/05 12:44:14;;;;;;;;;;;;;;;;;;5082589;28;20015;-82
2021/06/05 12:46:40;;;;;;;;;;;;;;;;;;5081555;28;20239;-83
2021/06/05 12:49:06;;;;;;;;;;;;;;;;;;5077776;28;20006;-81
2021/06/05 12:51:32;;;;;;;;;;;;;;;;;;5059063;28;19985;-81
2021/06/05 12:53:58;;;;;;;;;;;;;;;;;;5077567;28;20002;-79
2021/06/05 12:56:24;;;;;;;;;;;;;;;;;;5077850;28;19908;-80
2021/06/05 12:58:50;;;;;;;;;;;;;;;;;;5077482;28;20075;-80
2021/06/05 13:01:15;;;;;;;;;;;;;;;;;;5059092;28;19912;-80
2021/06/05 13:03:41;;;;;;;;;;;;;;;;;;5077693;28;20361;-79
2021/06/05 13:06:10;;;;;;;;;;;;;;;;;;5038911;28;19913;-80
2021/06/05 13:08:36;;;;;;;;;;;;;;;;;;5019500;28;19915;-79
2021/06/05 13:11:04;;;;;;;;;;;;;;;;;;5036879;28;19909;-80
2021/06/05 13:13:30;;;;;;;;;;;;;;;;;;5046100;28;19913;-81
2021/06/05 13:15:56;;;;;;;;;;;;;;;;;;5057173;28;19962;-81
2021/06/05 13:18:22;;;;;;;;;;;;;;;;;;5057016;28;20387;-81
2021/06/05 13:20:48;;;;;;;;;;;;;;;;;;5056771;28;20023;-81
2021/06/05 13:23:14;;;;;;;;;;;;;;;;;;5057015;28;19948;-81
2021/06/05 13:25:40;;;;;;;;;;;;;;;;;;5039573;28;20421;-81
2021/06/05 13:28:06;;;;;;;;;;;;;;;;;;5056292;28;19912;-81
2021/06/05 13:30:32;;;;;;;;;;;;;;;;;;5076313;28;19984;-81
2021/06/05 13:32:57;;;;;;;;;;;;;;;;;;5059317;28;20260;-80
2021/06/05 13:35:23;;;;;;;;;;;;;;;;;;5076550;28;19912;-81
2021/06/05 13:37:49;;;;;;;;;;;;;;;;;;5077572;28;19912;-80
2021/06/05 13:40:15;;;;;;;;;;;;;;;;;;5058232;28;19924;-80
2021/06/05 13:42:41;;;;;;;;;;;;;;;;;;5058349;28;19972;-81
2021/06/05 13:45:07;;;;;;;;;;;;;;;;;;5039437;28;19904;-79
2021/06/05 13:47:35;;;;;;;;;;;;;;;;;;5058754;28;19940;-84
2021/06/05 13:50:01;;;;;;;;;;;;;;;;;;5058605;28;19951;-83
2021/06/05 13:52:30;;;;;;;;;;;;;;;;;;5058677;28;19908;-83
2021/06/05 13:54:56;;;;;;;;;;;;;;;;;;5039863;28;20304;-83
2021/06/05 13:57:23;;;;;;;;;;;;;;;;;;5040548;28;19933;-84
2021/06/05 13:59:48;;;;;;;;;;;;;;;;;;5054587;28;19905;-83
2021/06/05 14:02:14;;;;;;;;;;;;;;;;;;5050735;28;20162;-83
2021/06/05 14:04:40;;;;;;;;;;;;;;;;;;5066106;28;19905;-83
2021/06/05 14:07:06;;;;;;;;;;;;;;;;;;5068640;28;20375;-83
2021/06/05 14:09:32;;;;;;;;;;;;;;;;;;5054380;28;19935;-83
2021/06/05 14:12:00;;;;;;;;;;;;;;;;;;5056050;28;20267;-84
2021/06/05 14:14:26;;;;;;;;;;;;;;;;;;5039231;28;19913;-82
2021/06/05 14:16:52;;;;;;;;;;;;;;;;;;5059871;28;20008;-83
2021/06/05 14:19:18;;;;;;;;;;;;;;;;;;5038600;28;19912;-83
2021/06/05 14:21:44;;;;;;;;;;;;;;;;;;5055690;28;20286;-83
2021/06/05 14:24:12;;;;;;;;;;;;;;;;;;5037159;28;19909;-83
2021/06/05 14:26:39;;;;;;;;;;;;;;;;;;5036660;28;19916;-83
2021/06/05 14:29:05;;;;;;;;;;;;;;;;;;5054597;28;19916;-83
2021/06/05 14:31:31;;;;;;;;;;;;;;;;;;5054881;28;19909;-83
2021/06/05 14:33:57;;;;;;;;;;;;;;;;;;5055690;28;19912;-83
2021/06/05 14:36:23;;;;;;;;;;;;;;;;;;5037027;28;20000;-83
2021/06/05 14:38:52;;;;;;;;;;;;;;;;;;5039037;28;19939;-83
2021/06/05 14:41:17;;;;;;;;;;;;;;;;;;5043034;28;19909;-84
2021/06/05 14:43:43;;;;;;;;;;;;;;;;;;5058745;28;19916;-84
2021/06/05 14:46:09;;;;;;;;;;;;;;;;;;5039794;28;19909;-84
2021/06/05 14:48:35;;;;;;;;;;;;;;;;;;5058511;28;19916;-83
2021/06/05 14:51:01;;;;;;;;;;;;;;;;;;5057261;28;19998;-84
2021/06/05 14:53:27;;;;;;;;;;;;;;;;;;5039779;28;19916;-85
2021/06/05 14:55:53;;;;;;;;;;;;;;;;;;5068178;28;20618;-84
2021/06/05 14:58:18;;;;;;;;;;;;;;;;;;5052567;28;19916;-83
2021/06/05 15:00:44;;;;;;;;;;;;;;;;;;5067713;28;19908;-84
2021/06/05 15:03:10;;;;;;;;;;;;;;;;;;5057436;28;19919;-85
2021/06/05 15:05:36;;;;;;;;;;;;;;;;;;5078364;28;20283;-84
2021/06/05 15:08:02;;;;;;;;;;;;;;;;;;5077475;28;19912;-84
2021/06/05 15:10:28;;;;;;;;;;;;;;;;;;5077469;28;19997;-84
2021/06/05 15:12:54;;;;;;;;;;;;;;;;;;5077453;28;19944;-84
2021/06/05 15:15:20;;;;;;;;;;;;;;;;;;5078215;28;19912;-83
2021/06/05 15:17:45;;;;;;;;;;;;;;;;;;5049418;28;19909;-84
2021/06/05 15:20:11;;;;;;;;;;;;;;;;;;5057413;28;19909;-84
2021/06/05 15:22:37;;;;;;;;;;;;;;;;;;5037606;28;20283;-79
2021/06/05 15:25:03;;;;;;;;;;;;;;;;;;5055081;28;19909;-74
2021/06/05 15:27:29;;;;;;;;;;;;;;;;;;5054543;28;19909;-77
2021/06/05 15:29:55;;;;;;;;;;;;;;;;;;5057090;28;19909;-82
2021/06/05 15:32:23;;;;;;;;;;;;;;;;;;5067563;28;19909;-80
2021/06/05 15:34:50;;;;;;;;;;;;;;;;;;5058653;28;19916;-80
2021/06/05 15:37:16;;;;;;;;;;;;;;;;;;5058955;28;19916;-80
2021/06/05 15:39:41;;;;;;;;;;;;;;;;;;5040765;28;20367;-80
2021/06/05 15:42:07;;;;;;;;;;;;;;;;;;5061103;28;19947;-80
2021/06/05 15:44:33;;;;;;;;;;;;;;;;;;5076742;28;19975;-81
2021/06/05 15:47:02;;;;;;;;;;;;;;;;;;5066302;28;19913;-81
2021/06/05 15:49:28;;;;;;;;;;;;;;;;;;5058210;28;19972;-81
2021/06/05 15:51:54;;;;;;;;;;;;;;;;;;5041605;28;19959;-81
2021/06/05 15:54:20;;;;;;;;;;;;;;;;;;5058606;28;19913;-81
2021/06/05 15:56:45;;;;;;;;;;;;;;;;;;5058195;28;19909;-81
2021/06/05 15:59:11;;;;;;;;;;;;;;;;;;5063506;28;19909;-80
2021/06/05 16:01:37;;;;;;;;;;;;;;;;;;5065434;28;19954;-81
2021/06/05 16:04:03;;;;;;;;;;;;;;;;;;5064376;28;19909;-81
2021/06/05 16:06:29;;;;;;;;;;;;;;;;;;5066641;28;19970;-81
2021/06/05 16:08:55;;;;;;;;;;;;;;;;;;5064536;28;20007;-81
2021/06/05 16:11:21;;;;;;;;;;;;;;;;;;5066365;28;19908;-79
2021/06/05 16:13:46;;;;;;;;;;;;;;;;;;5056828;28;19916;-78
2021/06/05 16:16:15;;;;;;;;;;;;;;;;;;5057121;28;20436;-78
2021/06/05 16:18:41;;;;;;;;;;;;;;;;;;5072596;28;20337;-80